Terminal Aerodrome Forecast
Issued by NWS Des Moines, IA

Home | Current Version | Previous Version | Text Only | Print | Product List | Glossary On
Versions: 1 2 3 4 5 6 7 8 9 10 11 12 13 14 15 16 17 18 19 20 21 22 23 24 25 26 27 28 29 30
214
FTUS43 KDMX 080524
TAFALO
TAF
KALO 080524Z 0806/0906 18014KT P6SM SCT200 WS020/21050KT
     FM081200 20006KT P6SM BKN200
     FM090200 VRB03KT P6SM OVC030=

USA.gov is the U.S. government's official web portal to all federal, state and local government web resources and services.